sensor_id;sensor_type;location;lat;lon;timestamp;P1;durP1;ratioP1;P2;durP2;ratioP2
21539;SDS011;10931;52.164;5.518;2023-04-06T00:01:16;1.13;;;0.93;;
21539;SDS011;10931;52.164;5.518;2023-04-06T00:03:41;1.20;;;0.90;;
21539;SDS011;10931;52.164;5.518;2023-04-06T00:06:07;1.95;;;1.10;;
21539;SDS011;10931;52.164;5.518;2023-04-06T00:08:33;2.17;;;0.95;;
21539;SDS011;10931;52.164;5.518;2023-04-06T00:10:59;1.33;;;1.00;;
21539;SDS011;10931;52.164;5.518;2023-04-06T00:13:24;1.65;;;1.20;;
21539;SDS011;10931;52.164;5.518;2023-04-06T00:15:50;2.00;;;1.02;;
21539;SDS011;10931;52.164;5.518;2023-04-06T00:18:16;1.77;;;1.00;;
21539;SDS011;10931;52.164;5.518;2023-04-06T00:20:41;1.73;;;1.23;;
21539;SDS011;10931;52.164;5.518;2023-04-06T00:23:08;2.13;;;1.10;;
21539;SDS011;10931;52.164;5.518;2023-04-06T00:25:34;2.30;;;1.20;;
21539;SDS011;10931;52.164;5.518;2023-04-06T00:28:00;1.30;;;0.95;;
21539;SDS011;10931;52.164;5.518;2023-04-06T00:30:26;2.97;;;1.02;;
21539;SDS011;10931;52.164;5.518;2023-04-06T00:32:51;1.70;;;1.08;;
21539;SDS011;10931;52.164;5.518;2023-04-06T00:35:22;1.67;;;1.10;;
21539;SDS011;10931;52.164;5.518;2023-04-06T00:37:54;2.13;;;1.00;;
21539;SDS011;10931;52.164;5.518;2023-04-06T00:40:25;1.27;;;0.90;;
21539;SDS011;10931;52.164;5.518;2023-04-06T00:42:53;2.60;;;1.17;;
21539;SDS011;10931;52.164;5.518;2023-04-06T00:45:19;1.85;;;1.10;;
21539;SDS011;10931;52.164;5.518;2023-04-06T00:47:48;2.15;;;1.13;;
21539;SDS011;10931;52.164;5.518;2023-04-06T00:50:13;2.25;;;1.20;;
21539;SDS011;10931;52.164;5.518;2023-04-06T00:52:39;2.53;;;1.20;;
21539;SDS011;10931;52.164;5.518;2023-04-06T00:55:05;2.88;;;1.10;;
21539;SDS011;10931;52.164;5.518;2023-04-06T00:57:31;2.22;;;1.15;;
21539;SDS011;10931;52.164;5.518;2023-04-06T00:59:57;1.75;;;1.10;;
21539;SDS011;10931;52.164;5.518;2023-04-06T01:02:23;1.77;;;1.23;;
21539;SDS011;10931;52.164;5.518;2023-04-06T01:04:51;1.65;;;1.00;;
21539;SDS011;10931;52.164;5.518;2023-04-06T01:07:20;2.08;;;1.30;;
21539;SDS011;10931;52.164;5.518;2023-04-06T01:09:45;1.40;;;0.93;;
21539;SDS011;10931;52.164;5.518;2023-04-06T01:12:13;2.08;;;0.95;;
21539;SDS011;10931;52.164;5.518;2023-04-06T01:14:45;1.30;;;1.05;;
21539;SDS011;10931;52.164;5.518;2023-04-06T01:17:11;2.35;;;1.05;;
21539;SDS011;10931;52.164;5.518;2023-04-06T01:19:36;2.33;;;1.10;;
21539;SDS011;10931;52.164;5.518;2023-04-06T01:22:06;2.35;;;1.10;;
21539;SDS011;10931;52.164;5.518;2023-04-06T01:24:35;1.83;;;0.95;;
21539;SDS011;10931;52.164;5.518;2023-04-06T01:27:01;2.10;;;1.17;;
21539;SDS011;10931;52.164;5.518;2023-04-06T01:31:57;2.72;;;1.42;;
21539;SDS011;10931;52.164;5.518;2023-04-06T01:34:23;1.38;;;0.80;;
21539;SDS011;10931;52.164;5.518;2023-04-06T01:36:49;1.35;;;0.90;;
21539;SDS011;10931;52.164;5.518;2023-04-06T01:39:15;2.13;;;0.98;;
21539;SDS011;10931;52.164;5.518;2023-04-06T01:41:41;1.35;;;0.98;;
21539;SDS011;10931;52.164;5.518;2023-04-06T01:44:06;1.65;;;1.00;;
21539;SDS011;10931;52.164;5.518;2023-04-06T01:46:35;3.25;;;1.38;;
21539;SDS011;10931;52.164;5.518;2023-04-06T01:49:00;2.10;;;0.95;;
21539;SDS011;10931;52.164;5.518;2023-04-06T01:51:26;1.55;;;0.90;;
21539;SDS011;10931;52.164;5.518;2023-04-06T01:53:52;2.42;;;1.00;;
21539;SDS011;10931;52.164;5.518;2023-04-06T01:56:23;2.30;;;0.80;;
21539;SDS011;10931;52.164;5.518;2023-04-06T01:58:49;1.55;;;1.17;;
21539;SDS011;10931;52.164;5.518;2023-04-06T02:01:15;1.75;;;1.10;;
21539;SDS011;10931;52.164;5.518;2023-04-06T02:03:40;1.98;;;1.20;;
21539;SDS011;10931;52.164;5.518;2023-04-06T02:06:06;1.23;;;0.98;;
21539;SDS011;10931;52.164;5.518;2023-04-06T02:08:32;2.97;;;1.00;;
21539;SDS011;10931;52.164;5.518;2023-04-06T02:10:57;2.72;;;1.30;;
21539;SDS011;10931;52.164;5.518;2023-04-06T02:13:26;1.10;;;0.90;;
21539;SDS011;10931;52.164;5.518;2023-04-06T02:16:00;1.35;;;0.90;;
21539;SDS011;10931;52.164;5.518;2023-04-06T02:18:30;1.38;;;0.95;;
21539;SDS011;10931;52.164;5.518;2023-04-06T02:21:05;1.27;;;1.00;;
21539;SDS011;10931;52.164;5.518;2023-04-06T02:23:31;1.60;;;1.00;;
21539;SDS011;10931;52.164;5.518;2023-04-06T02:25:57;1.33;;;1.00;;
21539;SDS011;10931;52.164;5.518;2023-04-06T02:28:22;1.13;;;0.90;;
21539;SDS011;10931;52.164;5.518;2023-04-06T02:30:51;1.67;;;1.02;;
21539;SDS011;10931;52.164;5.518;2023-04-06T02:33:16;1.30;;;1.00;;
21539;SDS011;10931;52.164;5.518;2023-04-06T02:35:43;2.15;;;0.88;;
21539;SDS011;10931;52.164;5.518;2023-04-06T02:38:10;1.40;;;1.00;;
21539;SDS011;10931;52.164;5.518;2023-04-06T02:40:36;1.70;;;1.00;;
21539;SDS011;10931;52.164;5.518;2023-04-06T02:43:02;1.58;;;1.00;;
21539;SDS011;10931;52.164;5.518;2023-04-06T02:45:29;1.33;;;0.90;;
21539;SDS011;10931;52.164;5.518;2023-04-06T02:47:55;1.67;;;0.85;;
21539;SDS011;10931;52.164;5.518;2023-04-06T02:50:21;1.17;;;0.85;;
21539;SDS011;10931;52.164;5.518;2023-04-06T02:52:46;1.13;;;0.80;;
21539;SDS011;10931;52.164;5.518;2023-04-06T02:55:12;1.20;;;0.93;;
21539;SDS011;10931;52.164;5.518;2023-04-06T02:57:38;2.08;;;1.10;;
21539;SDS011;10931;52.164;5.518;2023-04-06T03:00:04;1.38;;;0.75;;
21539;SDS011;10931;52.164;5.518;2023-04-06T03:02:32;1.30;;;0.85;;
21539;SDS011;10931;52.164;5.518;2023-04-06T03:05:01;1.67;;;0.90;;
21539;SDS011;10931;52.164;5.518;2023-04-06T03:07:28;1.65;;;0.80;;
21539;SDS011;10931;52.164;5.518;2023-04-06T03:09:56;1.33;;;0.80;;
21539;SDS011;10931;52.164;5.518;2023-04-06T03:12:25;3.65;;;0.90;;
21539;SDS011;10931;52.164;5.518;2023-04-06T03:14:50;1.80;;;0.90;;
21539;SDS011;10931;52.164;5.518;2023-04-06T03:17:18;2.55;;;0.80;;
21539;SDS011;10931;52.164;5.518;2023-04-06T03:19:44;1.08;;;0.80;;
21539;SDS011;10931;52.164;5.518;2023-04-06T03:22:10;0.90;;;0.80;;
21539;SDS011;10931;52.164;5.518;2023-04-06T03:24:38;1.17;;;0.77;;
21539;SDS011;10931;52.164;5.518;2023-04-06T03:27:04;1.35;;;0.90;;
21539;SDS011;10931;52.164;5.518;2023-04-06T03:29:31;1.50;;;0.90;;
21539;SDS011;10931;52.164;5.518;2023-04-06T03:31:57;1.40;;;0.80;;
21539;SDS011;10931;52.164;5.518;2023-04-06T03:34:22;1.73;;;1.05;;
21539;SDS011;10931;52.164;5.518;2023-04-06T03:36:48;1.25;;;0.90;;
21539;SDS011;10931;52.164;5.518;2023-04-06T03:39:14;1.17;;;0.80;;
21539;SDS011;10931;52.164;5.518;2023-04-06T03:41:40;0.88;;;0.80;;
21539;SDS011;10931;52.164;5.518;2023-04-06T03:44:09;1.75;;;0.95;;
21539;SDS011;10931;52.164;5.518;2023-04-06T03:46:37;1.63;;;0.85;;
21539;SDS011;10931;52.164;5.518;2023-04-06T03:49:03;1.65;;;0.95;;
21539;SDS011;10931;52.164;5.518;2023-04-06T03:51:28;1.20;;;0.90;;
21539;SDS011;10931;52.164;5.518;2023-04-06T03:53:57;1.33;;;0.90;;
21539;SDS011;10931;52.164;5.518;2023-04-06T03:56:22;1.25;;;0.90;;
21539;SDS011;10931;52.164;5.518;2023-04-06T03:58:48;2.20;;;1.05;;
21539;SDS011;10931;52.164;5.518;2023-04-06T04:01:16;1.55;;;1.00;;
21539;SDS011;10931;52.164;5.518;2023-04-06T04:03:42;1.30;;;0.90;;
21539;SDS011;10931;52.164;5.518;2023-04-06T04:06:08;1.13;;;0.85;;
21539;SDS011;10931;52.164;5.518;2023-04-06T04:08:36;2.72;;;1.00;;
21539;SDS011;10931;52.164;5.518;2023-04-06T04:11:02;1.10;;;0.82;;
21539;SDS011;10931;52.164;5.518;2023-04-06T04:13:30;1.40;;;0.98;;
21539;SDS011;10931;52.164;5.518;2023-04-06T04:15:56;1.25;;;0.82;;
21539;SDS011;10931;52.164;5.518;2023-04-06T04:18:25;1.40;;;1.00;;
21539;SDS011;10931;52.164;5.518;2023-04-06T04:20:50;1.63;;;0.90;;
21539;SDS011;10931;52.164;5.518;2023-04-06T04:23:16;1.35;;;1.25;;
21539;SDS011;10931;52.164;5.518;2023-04-06T04:25:43;1.42;;;0.90;;
21539;SDS011;10931;52.164;5.518;2023-04-06T04:28:08;1.27;;;0.98;;
21539;SDS011;10931;52.164;5.518;2023-04-06T04:30:34;1.30;;;0.95;;
21539;SDS011;10931;52.164;5.518;2023-04-06T04:33:00;1.30;;;0.80;;
21539;SDS011;10931;52.164;5.518;2023-04-06T04:35:26;1.10;;;0.80;;
21539;SDS011;10931;52.164;5.518;2023-04-06T04:37:59;2.22;;;1.10;;
21539;SDS011;10931;52.164;5.518;2023-04-06T04:40:27;2.67;;;0.90;;
21539;SDS011;10931;52.164;5.518;2023-04-06T04:42:52;1.25;;;1.00;;
21539;SDS011;10931;52.164;5.518;2023-04-06T04:45:18;1.80;;;1.00;;
21539;SDS011;10931;52.164;5.518;2023-04-06T04:47:44;1.50;;;0.90;;
21539;SDS011;10931;52.164;5.518;2023-04-06T04:50:10;1.27;;;0.85;;
21539;SDS011;10931;52.164;5.518;2023-04-06T04:52:36;2.33;;;1.38;;
21539;SDS011;10931;52.164;5.518;2023-04-06T04:55:02;2.35;;;0.80;;
21539;SDS011;10931;52.164;5.518;2023-04-06T04:57:28;1.85;;;0.90;;
21539;SDS011;10931;52.164;5.518;2023-04-06T04:59:57;2.28;;;0.80;;
21539;SDS011;10931;52.164;5.518;2023-04-06T05:02:26;1.63;;;1.05;;
21539;SDS011;10931;52.164;5.518;2023-04-06T05:04:52;2.22;;;1.00;;
21539;SDS011;10931;52.164;5.518;2023-04-06T05:07:17;2.15;;;1.00;;
21539;SDS011;10931;52.164;5.518;2023-04-06T05:09:46;1.92;;;1.10;;
21539;SDS011;10931;52.164;5.518;2023-04-06T05:12:17;1.02;;;0.77;;
21539;SDS011;10931;52.164;5.518;2023-04-06T05:14:43;1.33;;;0.95;;
21539;SDS011;10931;52.164;5.518;2023-04-06T05:17:09;1.35;;;0.90;;
21539;SDS011;10931;52.164;5.518;2023-04-06T05:19:35;1.70;;;1.00;;
21539;SDS011;10931;52.164;5.518;2023-04-06T05:22:01;1.58;;;0.93;;
21539;SDS011;10931;52.164;5.518;2023-04-06T05:24:26;1.40;;;0.90;;
21539;SDS011;10931;52.164;5.518;2023-04-06T05:26:52;1.90;;;0.90;;
21539;SDS011;10931;52.164;5.518;2023-04-06T05:29:20;1.45;;;0.90;;
21539;SDS011;10931;52.164;5.518;2023-04-06T05:31:46;1.20;;;0.80;;
21539;SDS011;10931;52.164;5.518;2023-04-06T05:34:12;2.13;;;1.00;;
21539;SDS011;10931;52.164;5.518;2023-04-06T05:36:38;1.15;;;0.82;;
21539;SDS011;10931;52.164;5.518;2023-04-06T05:39:05;2.35;;;0.88;;
21539;SDS011;10931;52.164;5.518;2023-04-06T05:41:31;1.27;;;0.90;;
21539;SDS011;10931;52.164;5.518;2023-04-06T05:43:56;1.85;;;1.27;;
21539;SDS011;10931;52.164;5.518;2023-04-06T05:46:23;1.38;;;0.80;;
21539;SDS011;10931;52.164;5.518;2023-04-06T05:48:49;1.75;;;1.02;;
21539;SDS011;10931;52.164;5.518;2023-04-06T05:51:15;2.33;;;0.82;;
21539;SDS011;10931;52.164;5.518;2023-04-06T05:53:41;2.40;;;1.10;;
21539;SDS011;10931;52.164;5.518;2023-04-06T05:56:06;1.88;;;1.05;;
21539;SDS011;10931;52.164;5.518;2023-04-06T05:58:32;1.67;;;0.80;;
21539;SDS011;10931;52.164;5.518;2023-04-06T06:01:00;2.00;;;1.10;;
21539;SDS011;10931;52.164;5.518;2023-04-06T06:03:26;2.30;;;1.10;;
21539;SDS011;10931;52.164;5.518;2023-04-06T06:05:52;1.20;;;0.90;;
21539;SDS011;10931;52.164;5.518;2023-04-06T06:08:18;1.02;;;0.88;;
21539;SDS011;10931;52.164;5.518;2023-04-06T06:10:43;1.83;;;0.75;;
21539;SDS011;10931;52.164;5.518;2023-04-06T06:13:18;1.90;;;1.00;;
21539;SDS011;10931;52.164;5.518;2023-04-06T06:15:43;2.35;;;1.15;;
21539;SDS011;10931;52.164;5.518;2023-04-06T06:18:09;1.35;;;0.88;;
21539;SDS011;10931;52.164;5.518;2023-04-06T06:20:35;1.20;;;0.70;;
21539;SDS011;10931;52.164;5.518;2023-04-06T06:23:01;2.13;;;1.23;;
21539;SDS011;10931;52.164;5.518;2023-04-06T06:25:29;1.98;;;1.00;;
21539;SDS011;10931;52.164;5.518;2023-04-06T06:27:58;0.98;;;0.80;;
21539;SDS011;10931;52.164;5.518;2023-04-06T06:30:26;1.92;;;1.10;;
21539;SDS011;10931;52.164;5.518;2023-04-06T06:32:52;2.05;;;1.00;;
21539;SDS011;10931;52.164;5.518;2023-04-06T06:35:18;1.73;;;0.98;;
21539;SDS011;10931;52.164;5.518;2023-04-06T06:37:43;1.63;;;1.00;;
21539;SDS011;10931;52.164;5.518;2023-04-06T06:40:09;1.60;;;0.98;;
21539;SDS011;10931;52.164;5.518;2023-04-06T06:42:38;1.52;;;0.95;;
21539;SDS011;10931;52.164;5.518;2023-04-06T06:45:04;1.80;;;1.00;;
21539;SDS011;10931;52.164;5.518;2023-04-06T06:47:32;1.40;;;1.00;;
21539;SDS011;10931;52.164;5.518;2023-04-06T06:49:58;4.30;;;1.15;;
21539;SDS011;10931;52.164;5.518;2023-04-06T06:52:23;2.97;;;1.08;;
21539;SDS011;10931;52.164;5.518;2023-04-06T06:54:51;1.55;;;1.15;;
21539;SDS011;10931;52.164;5.518;2023-04-06T06:57:17;2.10;;;1.10;;
21539;SDS011;10931;52.164;5.518;2023-04-06T06:59:43;1.75;;;1.17;;
21539;SDS011;10931;52.164;5.518;2023-04-06T07:02:11;1.45;;;1.00;;
21539;SDS011;10931;52.164;5.518;2023-04-06T07:04:36;1.95;;;1.20;;
21539;SDS011;10931;52.164;5.518;2023-04-06T07:07:02;2.47;;;1.40;;
21539;SDS011;10931;52.164;5.518;2023-04-06T07:09:28;1.58;;;1.08;;
21539;SDS011;10931;52.164;5.518;2023-04-06T07:11:54;1.67;;;1.02;;
21539;SDS011;10931;52.164;5.518;2023-04-06T07:14:21;1.67;;;1.15;;
21539;SDS011;10931;52.164;5.518;2023-04-06T07:16:47;1.40;;;0.90;;
21539;SDS011;10931;52.164;5.518;2023-04-06T07:19:14;2.03;;;1.35;;
21539;SDS011;10931;52.164;5.518;2023-04-06T07:21:40;2.78;;;1.25;;
21539;SDS011;10931;52.164;5.518;2023-04-06T07:24:06;1.40;;;1.00;;
21539;SDS011;10931;52.164;5.518;2023-04-06T07:26:32;1.83;;;1.23;;
21539;SDS011;10931;52.164;5.518;2023-04-06T07:28:58;2.83;;;1.40;;
21539;SDS011;10931;52.164;5.518;2023-04-06T07:31:23;3.72;;;1.50;;
21539;SDS011;10931;52.164;5.518;2023-04-06T07:33:49;2.25;;;1.50;;
21539;SDS011;10931;52.164;5.518;2023-04-06T07:36:15;1.73;;;1.20;;
21539;SDS011;10931;52.164;5.518;2023-04-06T07:38:44;2.42;;;1.30;;
21539;SDS011;10931;52.164;5.518;2023-04-06T07:41:21;3.65;;;1.30;;
21539;SDS011;10931;52.164;5.518;2023-04-06T07:43:51;3.25;;;1.10;;
21539;SDS011;10931;52.164;5.518;2023-04-06T07:46:16;2.85;;;1.25;;
21539;SDS011;10931;52.164;5.518;2023-04-06T07:48:42;2.22;;;1.10;;
21539;SDS011;10931;52.164;5.518;2023-04-06T07:51:07;2.08;;;1.25;;
21539;SDS011;10931;52.164;5.518;2023-04-06T07:53:39;2.72;;;1.55;;
21539;SDS011;10931;52.164;5.518;2023-04-06T07:56:05;2.25;;;1.10;;
21539;SDS011;10931;52.164;5.518;2023-04-06T07:58:31;2.47;;;1.45;;
21539;SDS011;10931;52.164;5.518;2023-04-06T08:00:56;2.00;;;1.40;;
21539;SDS011;10931;52.164;5.518;2023-04-06T08:03:23;2.45;;;1.38;;
21539;SDS011;10931;52.164;5.518;2023-04-06T08:05:50;1.67;;;1.10;;
21539;SDS011;10931;52.164;5.518;2023-04-06T08:08:17;2.70;;;1.40;;
21539;SDS011;10931;52.164;5.518;2023-04-06T08:10:43;2.30;;;1.40;;
21539;SDS011;10931;52.164;5.518;2023-04-06T08:13:10;3.15;;;1.48;;
21539;SDS011;10931;52.164;5.518;2023-04-06T08:15:35;1.38;;;1.13;;
21539;SDS011;10931;52.164;5.518;2023-04-06T08:18:03;1.77;;;1.30;;
21539;SDS011;10931;52.164;5.518;2023-04-06T08:20:29;1.67;;;1.10;;
21539;SDS011;10931;52.164;5.518;2023-04-06T08:22:55;3.25;;;1.40;;
21539;SDS011;10931;52.164;5.518;2023-04-06T08:25:21;2.53;;;1.45;;
21539;SDS011;10931;52.164;5.518;2023-04-06T08:27:46;1.73;;;1.08;;
21539;SDS011;10931;52.164;5.518;2023-04-06T08:30:12;1.85;;;0.98;;
21539;SDS011;10931;52.164;5.518;2023-04-06T08:32:40;2.55;;;0.90;;
21539;SDS011;10931;52.164;5.518;2023-04-06T08:35:09;1.67;;;1.05;;
21539;SDS011;10931;52.164;5.518;2023-04-06T08:37:34;3.97;;;1.20;;
21539;SDS011;10931;52.164;5.518;2023-04-06T08:40:00;2.00;;;1.30;;
21539;SDS011;10931;52.164;5.518;2023-04-06T08:42:26;2.47;;;1.20;;
21539;SDS011;10931;52.164;5.518;2023-04-06T08:44:57;2.08;;;1.20;;
21539;SDS011;10931;52.164;5.518;2023-04-06T08:47:22;2.42;;;1.33;;
21539;SDS011;10931;52.164;5.518;2023-04-06T08:49:48;2.97;;;1.25;;
21539;SDS011;10931;52.164;5.518;2023-04-06T08:52:15;2.22;;;1.30;;
21539;SDS011;10931;52.164;5.518;2023-04-06T08:54:43;1.73;;;1.10;;
21539;SDS011;10931;52.164;5.518;2023-04-06T08:57:09;2.35;;;1.30;;
21539;SDS011;10931;52.164;5.518;2023-04-06T08:59:36;2.05;;;1.35;;
21539;SDS011;10931;52.164;5.518;2023-04-06T09:02:03;2.97;;;1.40;;
21539;SDS011;10931;52.164;5.518;2023-04-06T09:04:32;2.15;;;1.10;;
21539;SDS011;10931;52.164;5.518;2023-04-06T09:07:00;2.95;;;1.25;;
21539;SDS011;10931;52.164;5.518;2023-04-06T09:09:26;2.47;;;1.15;;
21539;SDS011;10931;52.164;5.518;2023-04-06T09:11:51;2.65;;;1.35;;
21539;SDS011;10931;52.164;5.518;2023-04-06T09:14:32;1.95;;;1.40;;
21539;SDS011;10931;52.164;5.518;2023-04-06T09:17:00;2.20;;;1.20;;
21539;SDS011;10931;52.164;5.518;2023-04-06T09:19:25;2.08;;;1.30;;
21539;SDS011;10931;52.164;5.518;2023-04-06T09:22:00;2.38;;;1.50;;
21539;SDS011;10931;52.164;5.518;2023-04-06T09:27:08;1.92;;;1.17;;
21539;SDS011;10931;52.164;5.518;2023-04-06T09:29:33;2.05;;;1.30;;
21539;SDS011;10931;52.164;5.518;2023-04-06T09:32:04;2.92;;;1.58;;
21539;SDS011;10931;52.164;5.518;2023-04-06T09:34:36;2.00;;;1.40;;
21539;SDS011;10931;52.164;5.518;2023-04-06T09:37:18;2.90;;;1.70;;
21539;SDS011;10931;52.164;5.518;2023-04-06T09:39:45;3.05;;;1.27;;
21539;SDS011;10931;52.164;5.518;2023-04-06T09:42:22;2.75;;;1.35;;
21539;SDS011;10931;52.164;5.518;2023-04-06T09:44:49;2.45;;;0.98;;
21539;SDS011;10931;52.164;5.518;2023-04-06T09:47:15;1.88;;;1.30;;
21539;SDS011;10931;52.164;5.518;2023-04-06T09:49:43;2.53;;;1.40;;
21539;SDS011;10931;52.164;5.518;2023-04-06T09:52:10;2.55;;;1.40;;
21539;SDS011;10931;52.164;5.518;2023-04-06T09:54:39;2.63;;;1.40;;
21539;SDS011;10931;52.164;5.518;2023-04-06T09:57:25;2.72;;;1.40;;
21539;SDS011;10931;52.164;5.518;2023-04-06T10:05:02;3.28;;;1.38;;
21539;SDS011;10931;52.164;5.518;2023-04-06T10:07:33;2.45;;;1.40;;
21539;SDS011;10931;52.164;5.518;2023-04-06T10:10:00;2.03;;;1.13;;
21539;SDS011;10931;52.164;5.518;2023-04-06T10:12:27;1.55;;;1.13;;
21539;SDS011;10931;52.164;5.518;2023-04-06T10:14:53;4.13;;;1.67;;
21539;SDS011;10931;52.164;5.518;2023-04-06T10:17:20;1.92;;;1.30;;
21539;SDS011;10931;52.164;5.518;2023-04-06T10:19:59;2.83;;;1.70;;
21539;SDS011;10931;52.164;5.518;2023-04-06T10:22:36;2.22;;;1.45;;
21539;SDS011;10931;52.164;5.518;2023-04-06T10:25:31;1.67;;;1.23;;
21539;SDS011;10931;52.164;5.518;2023-04-06T10:28:09;2.70;;;1.35;;
21539;SDS011;10931;52.164;5.518;2023-04-06T10:30:41;2.38;;;1.33;;
21539;SDS011;10931;52.164;5.518;2023-04-06T10:33:14;3.65;;;1.48;;
21539;SDS011;10931;52.164;5.518;2023-04-06T10:35:44;2.25;;;1.50;;
21539;SDS011;10931;52.164;5.518;2023-04-06T10:38:10;2.10;;;1.27;;
21539;SDS011;10931;52.164;5.518;2023-04-06T10:40:39;3.13;;;1.50;;
21539;SDS011;10931;52.164;5.518;2023-04-06T10:43:18;2.47;;;1.58;;
21539;SDS011;10931;52.164;5.518;2023-04-06T10:45:45;2.67;;;1.38;;
21539;SDS011;10931;52.164;5.518;2023-04-06T10:48:20;3.13;;;1.33;;
21539;SDS011;10931;52.164;5.518;2023-04-06T10:50:49;3.25;;;1.42;;
21539;SDS011;10931;52.164;5.518;2023-04-06T10:53:24;3.17;;;1.50;;
21539;SDS011;10931;52.164;5.518;2023-04-06T10:55:52;2.10;;;1.38;;
21539;SDS011;10931;52.164;5.518;2023-04-06T10:58:32;2.45;;;1.50;;
21539;SDS011;10931;52.164;5.518;2023-04-06T11:01:03;3.33;;;1.38;;
21539;SDS011;10931;52.164;5.518;2023-04-06T11:03:29;2.92;;;1.55;;
21539;SDS011;10931;52.164;5.518;2023-04-06T11:05:57;2.45;;;1.17;;
21539;SDS011;10931;52.164;5.518;2023-04-06T11:08:27;3.25;;;1.40;;
21539;SDS011;10931;52.164;5.518;2023-04-06T11:11:05;2.20;;;1.30;;
21539;SDS011;10931;52.164;5.518;2023-04-06T11:13:41;1.70;;;0.95;;
21539;SDS011;10931;52.164;5.518;2023-04-06T11:19:04;1.67;;;1.08;;
21539;SDS011;10931;52.164;5.518;2023-04-06T11:24:17;1.52;;;1.00;;
21539;SDS011;10931;52.164;5.518;2023-04-06T11:26:47;2.08;;;1.08;;
21539;SDS011;10931;52.164;5.518;2023-04-06T11:29:23;2.00;;;0.90;;
21539;SDS011;10931;52.164;5.518;2023-04-06T11:31:51;1.83;;;1.10;;
21539;SDS011;10931;52.164;5.518;2023-04-06T11:34:22;1.40;;;0.95;;
21539;SDS011;10931;52.164;5.518;2023-04-06T11:36:54;2.85;;;0.90;;
21539;SDS011;10931;52.164;5.518;2023-04-06T11:39:27;2.13;;;0.80;;
21539;SDS011;10931;52.164;5.518;2023-04-06T11:41:54;1.90;;;1.00;;
21539;SDS011;10931;52.164;5.518;2023-04-06T11:44:40;1.38;;;0.80;;
21539;SDS011;10931;52.164;5.518;2023-04-06T11:47:14;0.90;;;0.70;;
21539;SDS011;10931;52.164;5.518;2023-04-06T11:49:43;0.98;;;0.60;;
21539;SDS011;10931;52.164;5.518;2023-04-06T11:52:19;1.40;;;0.82;;
21539;SDS011;10931;52.164;5.518;2023-04-06T11:54:48;1.10;;;0.70;;
21539;SDS011;10931;52.164;5.518;2023-04-06T11:57:15;2.30;;;0.77;;
21539;SDS011;10931;52.164;5.518;2023-04-06T11:59:42;2.15;;;0.80;;
21539;SDS011;10931;52.164;5.518;2023-04-06T12:02:08;1.40;;;0.60;;
21539;SDS011;10931;52.164;5.518;2023-04-06T12:04:35;0.90;;;0.70;;
21539;SDS011;10931;52.164;5.518;2023-04-06T12:07:03;7.40;;;1.05;;
21539;SDS011;10931;52.164;5.518;2023-04-06T12:09:29;1.35;;;0.77;;
21539;SDS011;10931;52.164;5.518;2023-04-06T12:11:55;1.73;;;0.60;;
21539;SDS011;10931;52.164;5.518;2023-04-06T12:14:21;2.70;;;0.70;;
21539;SDS011;10931;52.164;5.518;2023-04-06T12:16:47;1.15;;;0.70;;
21539;SDS011;10931;52.164;5.518;2023-04-06T12:19:16;2.25;;;0.73;;
21539;SDS011;10931;52.164;5.518;2023-04-06T12:21:41;0.88;;;0.50;;
21539;SDS011;10931;52.164;5.518;2023-04-06T12:24:10;1.00;;;0.52;;
21539;SDS011;10931;52.164;5.518;2023-04-06T12:26:37;2.40;;;0.77;;
21539;SDS011;10931;52.164;5.518;2023-04-06T12:29:02;2.47;;;0.85;;
21539;SDS011;10931;52.164;5.518;2023-04-06T12:31:32;1.65;;;0.90;;
21539;SDS011;10931;52.164;5.518;2023-04-06T12:34:08;1.10;;;0.77;;
21539;SDS011;10931;52.164;5.518;2023-04-06T12:36:33;1.40;;;0.70;;
21539;SDS011;10931;52.164;5.518;2023-04-06T12:38:59;1.73;;;0.65;;
21539;SDS011;10931;52.164;5.518;2023-04-06T12:41:26;1.30;;;0.70;;
21539;SDS011;10931;52.164;5.518;2023-04-06T12:43:52;0.93;;;0.50;;
21539;SDS011;10931;52.164;5.518;2023-04-06T12:46:18;2.50;;;0.68;;
21539;SDS011;10931;52.164;5.518;2023-04-06T12:48:44;1.65;;;0.70;;
21539;SDS011;10931;52.164;5.518;2023-04-06T12:51:11;1.52;;;0.80;;
21539;SDS011;10931;52.164;5.518;2023-04-06T12:53:46;1.38;;;0.90;;
21539;SDS011;10931;52.164;5.518;2023-04-06T12:56:18;1.20;;;0.73;;
21539;SDS011;10931;52.164;5.518;2023-04-06T12:58:53;0.95;;;0.68;;
21539;SDS011;10931;52.164;5.518;2023-04-06T13:01:21;1.42;;;0.82;;
21539;SDS011;10931;52.164;5.518;2023-04-06T13:03:47;1.75;;;0.70;;
21539;SDS011;10931;52.164;5.518;2023-04-06T13:06:13;0.88;;;0.68;;
21539;SDS011;10931;52.164;5.518;2023-04-06T13:08:42;1.23;;;0.70;;
21539;SDS011;10931;52.164;5.518;2023-04-06T13:11:08;2.83;;;1.02;;
21539;SDS011;10931;52.164;5.518;2023-04-06T13:13:34;1.38;;;0.85;;
21539;SDS011;10931;52.164;5.518;2023-04-06T13:16:02;1.00;;;0.70;;
21539;SDS011;10931;52.164;5.518;2023-04-06T13:18:39;5.47;;;0.90;;
21539;SDS011;10931;52.164;5.518;2023-04-06T13:21:05;0.95;;;0.60;;
21539;SDS011;10931;52.164;5.518;2023-04-06T13:23:35;1.77;;;0.90;;
21539;SDS011;10931;52.164;5.518;2023-04-06T13:26:04;1.70;;;0.80;;
21539;SDS011;10931;52.164;5.518;2023-04-06T13:28:31;1.13;;;0.70;;
21539;SDS011;10931;52.164;5.518;2023-04-06T13:30:58;1.13;;;0.90;;
21539;SDS011;10931;52.164;5.518;2023-04-06T13:33:28;1.42;;;0.88;;
21539;SDS011;10931;52.164;5.518;2023-04-06T13:36:02;0.77;;;0.60;;
21539;SDS011;10931;52.164;5.518;2023-04-06T13:38:29;1.08;;;0.63;;
21539;SDS011;10931;52.164;5.518;2023-04-06T13:40:59;0.80;;;0.73;;
21539;SDS011;10931;52.164;5.518;2023-04-06T13:43:28;1.13;;;0.68;;
21539;SDS011;10931;52.164;5.518;2023-04-06T13:45:56;0.90;;;0.60;;
21539;SDS011;10931;52.164;5.518;2023-04-06T13:48:27;1.05;;;0.70;;
21539;SDS011;10931;52.164;5.518;2023-04-06T13:50:53;0.95;;;0.50;;
21539;SDS011;10931;52.164;5.518;2023-04-06T13:53:19;1.15;;;0.50;;
21539;SDS011;10931;52.164;5.518;2023-04-06T13:55:51;1.15;;;0.57;;
21539;SDS011;10931;52.164;5.518;2023-04-06T13:58:18;0.57;;;0.50;;
21539;SDS011;10931;52.164;5.518;2023-04-06T14:00:46;1.02;;;0.70;;
21539;SDS011;10931;52.164;5.518;2023-04-06T14:03:11;1.25;;;0.60;;
21539;SDS011;10931;52.164;5.518;2023-04-06T14:05:37;1.98;;;0.60;;
21539;SDS011;10931;52.164;5.518;2023-04-06T14:08:03;1.08;;;0.68;;
21539;SDS011;10931;52.164;5.518;2023-04-06T14:10:52;0.70;;;0.60;;
21539;SDS011;10931;52.164;5.518;2023-04-06T14:13:19;1.10;;;0.70;;
21539;SDS011;10931;52.164;5.518;2023-04-06T14:15:45;1.23;;;0.68;;
21539;SDS011;10931;52.164;5.518;2023-04-06T14:18:11;0.93;;;0.60;;
21539;SDS011;10931;52.164;5.518;2023-04-06T14:20:42;2.75;;;0.68;;
21539;SDS011;10931;52.164;5.518;2023-04-06T14:23:10;3.63;;;0.90;;
21539;SDS011;10931;52.164;5.518;2023-04-06T14:25:36;2.35;;;0.60;;
21539;SDS011;10931;52.164;5.518;2023-04-06T14:28:02;1.02;;;0.60;;
21539;SDS011;10931;52.164;5.518;2023-04-06T14:30:31;1.00;;;0.50;;
21539;SDS011;10931;52.164;5.518;2023-04-06T14:33:05;1.73;;;0.88;;
21539;SDS011;10931;52.164;5.518;2023-04-06T14:35:30;4.53;;;1.02;;
21539;SDS011;10931;52.164;5.518;2023-04-06T14:37:59;2.88;;;1.25;;
21539;SDS011;10931;52.164;5.518;2023-04-06T14:40:30;2.22;;;1.25;;
21539;SDS011;10931;52.164;5.518;2023-04-06T14:43:01;2.05;;;0.80;;
21539;SDS011;10931;52.164;5.518;2023-04-06T14:45:27;2.28;;;0.85;;
21539;SDS011;10931;52.164;5.518;2023-04-06T14:47:52;2.25;;;1.00;;
21539;SDS011;10931;52.164;5.518;2023-04-06T14:50:23;4.55;;;0.80;;
21539;SDS011;10931;52.164;5.518;2023-04-06T14:52:52;3.70;;;0.75;;
21539;SDS011;10931;52.164;5.518;2023-04-06T14:55:17;1.20;;;0.90;;
21539;SDS011;10931;52.164;5.518;2023-04-06T14:57:43;2.13;;;0.73;;
21539;SDS011;10931;52.164;5.518;2023-04-06T15:00:12;2.78;;;1.02;;
21539;SDS011;10931;52.164;5.518;2023-04-06T15:02:38;5.50;;;1.63;;
21539;SDS011;10931;52.164;5.518;2023-04-06T15:05:05;1.95;;;0.77;;
21539;SDS011;10931;52.164;5.518;2023-04-06T15:07:33;5.13;;;1.40;;